createdAt,value
2019-03-29T00:01:09.875Z,0
2019-03-29T00:02:20.028Z,0
2019-03-29T00:03:30.140Z,0
2019-03-29T00:04:40.260Z,0
2019-03-29T00:05:50.414Z,0
2019-03-29T00:07:00.549Z,0
2019-03-29T00:08:11.962Z,0
2019-03-29T00:09:21.822Z,0
2019-03-29T00:10:31.940Z,0
2019-03-29T00:11:42.102Z,0
2019-03-29T00:12:52.235Z,0
2019-03-29T00:14:02.350Z,0
2019-03-29T00:15:12.960Z,0
2019-03-29T00:16:23.065Z,0
2019-03-29T00:17:33.734Z,0
2019-03-29T00:18:43.866Z,0
2019-03-29T00:19:54.236Z,0
2019-03-29T00:21:04.417Z,0
2019-03-29T00:22:14.548Z,0
2019-03-29T00:23:25.446Z,0
2019-03-29T00:24:35.555Z,0
2019-03-29T00:25:45.658Z,0
2019-03-29T00:26:55.831Z,0
2019-03-29T00:28:05.947Z,0
2019-03-29T00:29:16.075Z,0
2019-03-29T00:30:26.968Z,0
2019-03-29T00:31:37.086Z,0
2019-03-29T00:32:47.841Z,0
2019-03-29T00:33:57.988Z,0
2019-03-29T00:35:08.357Z,0
2019-03-29T00:36:18.481Z,0
2019-03-29T00:37:28.604Z,0
2019-03-29T00:38:38.722Z,0
2019-03-29T00:39:48.819Z,0
2019-03-29T00:40:59.018Z,0
2019-03-29T00:42:09.343Z,0
2019-03-29T00:43:19.678Z,0
2019-03-29T00:44:29.820Z,0
2019-03-29T00:45:39.708Z,0
2019-03-29T00:46:49.826Z,0
2019-03-29T00:48:00.829Z,0
2019-03-29T00:49:10.942Z,0
2019-03-29T00:50:21.069Z,0
2019-03-29T00:51:32.116Z,0
2019-03-29T00:52:42.332Z,0
2019-03-29T00:53:53.065Z,0
2019-03-29T00:55:03.185Z,0
2019-03-29T00:56:13.090Z,0
2019-03-29T00:57:23.408Z,0
2019-03-29T00:58:33.512Z,0
2019-03-29T00:59:43.663Z,0
2019-03-29T01:00:53.817Z,0
2019-03-29T01:02:03.946Z,0
2019-03-29T01:03:13.808Z,0
2019-03-29T01:04:23.926Z,0
2019-03-29T01:05:34.050Z,0
2019-03-29T01:06:44.283Z,0
2019-03-29T01:08:06.938Z,0
2019-03-29T01:09:18.820Z,0
2019-03-29T01:10:29.511Z,0
2019-03-29T01:11:40.891Z,0
2019-03-29T01:12:50.881Z,0
2019-03-29T01:14:00.983Z,0
2019-03-29T01:15:11.759Z,0
2019-03-29T01:16:21.886Z,0
2019-03-29T01:17:32.014Z,0
2019-03-29T01:18:43.036Z,0
2019-03-29T01:19:53.162Z,0
2019-03-29T01:21:04.045Z,0
2019-03-29T01:22:14.166Z,0
2019-03-29T01:23:24.396Z,0
2019-03-29T01:24:34.509Z,0
2019-03-29T01:25:44.619Z,0
2019-03-29T01:26:55.446Z,0
2019-03-29T01:28:05.548Z,0
2019-03-29T01:29:15.678Z,0
2019-03-29T01:30:25.887Z,0
2019-03-29T01:31:35.989Z,0
2019-03-29T01:32:46.110Z,0
2019-03-29T01:33:56.222Z,0
2019-03-29T01:35:06.336Z,0
2019-03-29T01:36:17.221Z,0
2019-03-29T01:37:27.433Z,0
2019-03-29T01:38:37.536Z,0
2019-03-29T01:39:47.824Z,0
2019-03-29T01:40:57.939Z,0
2019-03-29T01:42:08.804Z,0
2019-03-29T01:43:18.953Z,0
2019-03-29T01:44:30.367Z,0
2019-03-29T01:45:40.578Z,0
2019-03-29T01:46:50.697Z,0
2019-03-29T01:48:00.965Z,0
2019-03-29T01:49:11.077Z,0
2019-03-29T01:50:21.193Z,0
2019-03-29T01:51:32.675Z,0
2019-03-29T01:52:42.809Z,0
2019-03-29T01:53:53.721Z,0
2019-03-29T01:55:04.605Z,0
2019-03-29T01:56:14.940Z,0
2019-03-29T01:57:25.082Z,0
2019-03-29T01:58:35.197Z,0
2019-03-29T01:59:45.620Z,0
2019-03-29T02:00:55.807Z,0
2019-03-29T02:02:05.902Z,0
2019-03-29T02:03:16.043Z,0
2019-03-29T02:04:26.363Z,0
2019-03-29T02:05:36.506Z,0
2019-03-29T02:06:48.052Z,0
2019-03-29T02:07:58.168Z,0
2019-03-29T02:09:09.866Z,0
2019-03-29T02:10:19.997Z,0
2019-03-29T02:11:30.610Z,0
2019-03-29T02:12:40.623Z,0
2019-03-29T02:13:51.247Z,0
2019-03-29T02:15:01.716Z,0
2019-03-29T02:16:11.818Z,0
2019-03-29T02:17:22.207Z,0
2019-03-29T02:18:32.328Z,0
2019-03-29T02:19:42.444Z,0
2019-03-29T02:20:52.784Z,0
2019-03-29T02:22:02.915Z,0
2019-03-29T02:23:13.056Z,0
2019-03-29T02:24:23.264Z,0
2019-03-29T02:25:34.058Z,0
2019-03-29T02:26:44.149Z,0
2019-03-29T02:27:55.371Z,0
2019-03-29T02:29:05.519Z,0
2019-03-29T02:30:15.703Z,0
2019-03-29T02:31:31.655Z,0
2019-03-29T02:32:41.773Z,0
2019-03-29T02:33:53.398Z,0
2019-03-29T02:35:03.579Z,0
2019-03-29T02:36:14.357Z,0
2019-03-29T02:37:24.470Z,0
2019-03-29T02:38:34.607Z,0
2019-03-29T02:40:03.031Z,0
2019-03-29T02:41:13.150Z,0
2019-03-29T02:42:23.277Z,0
2019-03-29T02:43:33.383Z,0
2019-03-29T02:44:43.506Z,0
2019-03-29T02:45:53.608Z,0
2019-03-29T02:47:05.438Z,0
2019-03-29T02:48:16.671Z,0
2019-03-29T02:49:27.077Z,0
2019-03-29T02:50:39.178Z,0
2019-03-29T02:51:49.327Z,0
2019-03-29T02:52:59.457Z,0
2019-03-29T02:54:09.600Z,0
2019-03-29T02:55:19.764Z,0
2019-03-29T02:56:29.889Z,0
2019-03-29T02:57:40.006Z,0
2019-03-29T02:58:50.106Z,0
2019-03-29T02:59:59.871Z,0
2019-03-29T03:01:10.006Z,0
2019-03-29T03:02:20.131Z,0
2019-03-29T03:03:34.303Z,0
2019-03-29T03:04:44.440Z,0
2019-03-29T03:05:54.561Z,0
2019-03-29T03:07:04.450Z,0
2019-03-29T03:08:14.591Z,0
2019-03-29T03:09:24.754Z,0
2019-03-29T03:10:34.869Z,0
2019-03-29T03:11:45.203Z,0
2019-03-29T03:12:55.326Z,0
2019-03-29T03:14:05.459Z,0
2019-03-29T03:15:15.579Z,0
2019-03-29T03:16:25.722Z,0
2019-03-29T03:17:35.851Z,0
2019-03-29T03:18:45.975Z,0
2019-03-29T03:19:56.110Z,0
2019-03-29T03:21:06.284Z,0
2019-03-29T03:22:16.151Z,0
2019-03-29T03:23:26.262Z,0
2019-03-29T03:24:36.382Z,0
2019-03-29T03:25:46.498Z,0
2019-03-29T03:26:56.612Z,0
2019-03-29T03:28:06.749Z,0
2019-03-29T03:29:16.909Z,0
2019-03-29T03:30:27.111Z,0
2019-03-29T03:31:37.325Z,0
2019-03-29T03:32:47.627Z,0
2019-03-29T03:33:57.799Z,0
2019-03-29T03:35:08.286Z,0
2019-03-29T03:36:18.193Z,0
2019-03-29T03:37:28.344Z,0
2019-03-29T03:38:38.520Z,0
2019-03-29T03:39:48.641Z,0
2019-03-29T03:40:58.752Z,0
2019-03-29T03:42:08.876Z,0
2019-03-29T03:43:19.165Z,0
2019-03-29T03:44:29.301Z,0
2019-03-29T03:45:39.415Z,0
2019-03-29T03:46:49.535Z,0
2019-03-29T03:47:59.722Z,0
2019-03-29T03:49:09.853Z,0
2019-03-29T03:50:19.968Z,0
2019-03-29T03:51:30.094Z,0
2019-03-29T03:52:40.407Z,0
2019-03-29T03:53:50.586Z,0
2019-03-29T03:55:00.704Z,0
2019-03-29T03:56:10.466Z,0
2019-03-29T03:57:20.568Z,0
2019-03-29T03:58:30.689Z,0
2019-03-29T03:59:40.825Z,0
2019-03-29T04:00:50.936Z,0
2019-03-29T04:02:00.823Z,0
2019-03-29T04:03:11.082Z,0
2019-03-29T04:04:21.191Z,0
2019-03-29T04:05:31.322Z,0
2019-03-29T04:06:41.457Z,0
2019-03-29T04:07:51.570Z,0
2019-03-29T04:09:01.443Z,0
2019-03-29T04:10:11.376Z,0
2019-03-29T04:11:21.496Z,0
2019-03-29T04:12:31.656Z,0
2019-03-29T04:13:41.602Z,0
2019-03-29T04:14:51.743Z,0
2019-03-29T04:16:01.896Z,0
2019-03-29T04:17:12.013Z,0
2019-03-29T04:18:23.465Z,0
2019-03-29T04:19:33.593Z,0
2019-03-29T04:20:43.350Z,0
2019-03-29T04:21:53.477Z,0
2019-03-29T04:23:03.625Z,0
2019-03-29T04:24:13.770Z,0
2019-03-29T04:25:23.637Z,0
2019-03-29T04:26:33.776Z,0
2019-03-29T04:27:43.893Z,0
2019-03-29T04:29:10.369Z,0
2019-03-29T04:30:20.233Z,4
2019-03-29T04:31:30.106Z,0
2019-03-29T04:32:40.239Z,4
2019-03-29T04:33:50.360Z,0
2019-03-29T04:35:00.515Z,4
2019-03-29T04:36:10.940Z,4
2019-03-29T04:37:21.071Z,8
2019-03-29T04:38:31.219Z,8
2019-03-29T04:39:41.367Z,8
2019-03-29T04:40:51.506Z,12
2019-03-29T04:42:01.626Z,12
2019-03-29T04:43:11.403Z,16
2019-03-29T04:44:21.542Z,20
2019-03-29T04:45:31.678Z,24
2019-03-29T04:46:41.817Z,24
2019-03-29T04:47:51.972Z,28
2019-03-29T04:49:02.108Z,36
2019-03-29T04:50:12.227Z,40
2019-03-29T04:51:22.343Z,48
2019-03-29T04:52:32.462Z,56
2019-03-29T04:53:42.579Z,64
2019-03-29T04:54:52.692Z,72
2019-03-29T04:56:02.837Z,84
2019-03-29T04:57:13.011Z,92
2019-03-29T04:58:23.120Z,100
2019-03-29T04:59:33.257Z,112
2019-03-29T05:00:43.371Z,120
2019-03-29T05:01:53.508Z,128
2019-03-29T05:03:03.668Z,144
2019-03-29T05:04:13.538Z,152
2019-03-29T05:05:23.656Z,160
2019-03-29T05:06:33.781Z,176
2019-03-29T05:07:44.866Z,184
2019-03-29T05:08:55.045Z,196
2019-03-29T05:10:05.272Z,204
2019-03-29T05:11:28.137Z,220
2019-03-29T05:12:38.320Z,240
2019-03-29T05:13:48.497Z,252
2019-03-29T05:14:58.637Z,272
2019-03-29T05:16:08.779Z,288
2019-03-29T05:17:18.896Z,304
2019-03-29T05:18:29.003Z,324
2019-03-29T05:19:39.126Z,336
2019-03-29T05:20:52.362Z,356
2019-03-29T05:22:02.511Z,380
2019-03-29T05:23:12.622Z,404
2019-03-29T05:24:22.813Z,432
2019-03-29T05:25:33.048Z,452
2019-03-29T05:26:43.229Z,476
2019-03-29T05:27:53.389Z,500
2019-03-29T05:29:03.581Z,520
2019-03-29T05:30:13.685Z,548
2019-03-29T05:31:23.802Z,572
2019-03-29T05:32:33.941Z,600
2019-03-29T05:33:44.047Z,628
2019-03-29T05:34:54.148Z,656
2019-03-29T05:36:04.266Z,680
2019-03-29T05:37:14.378Z,708
2019-03-29T05:38:24.344Z,744
2019-03-29T05:39:34.480Z,772
2019-03-29T05:40:44.589Z,792
2019-03-29T05:41:54.474Z,808
2019-03-29T05:43:04.619Z,824
2019-03-29T05:44:14.737Z,848
2019-03-29T05:45:24.859Z,888
2019-03-29T05:46:35.016Z,928
2019-03-29T05:47:45.122Z,968
2019-03-29T05:48:55.233Z,1008
2019-03-29T05:50:05.357Z,1036
2019-03-29T05:51:15.487Z,1060
2019-03-29T05:52:25.604Z,1092
2019-03-29T05:53:35.717Z,1124
2019-03-29T05:54:45.822Z,1148
2019-03-29T05:55:55.952Z,1168
2019-03-29T05:57:06.082Z,1200
2019-03-29T05:58:16.388Z,1228
2019-03-29T05:59:26.518Z,1264
2019-03-29T06:00:36.649Z,1308
2019-03-29T06:01:47.743Z,1360
2019-03-29T06:02:57.855Z,1428
2019-03-29T06:04:07.987Z,1480
2019-03-29T06:05:18.098Z,1520
2019-03-29T06:06:28.226Z,1560
2019-03-29T06:07:38.401Z,1600
2019-03-29T06:08:48.532Z,1620
2019-03-29T06:09:58.716Z,1624
2019-03-29T06:11:08.845Z,1600
2019-03-29T06:12:18.953Z,1580
2019-03-29T06:13:29.071Z,1572
2019-03-29T06:14:39.210Z,1580
2019-03-29T06:15:49.318Z,1600
2019-03-29T06:16:59.459Z,1628
2019-03-29T06:18:09.574Z,1672
2019-03-29T06:19:19.687Z,1724
2019-03-29T06:20:29.795Z,1780
2019-03-29T06:21:39.920Z,1812
2019-03-29T06:22:50.062Z,1860
2019-03-29T06:24:00.171Z,1916
2019-03-29T06:25:10.286Z,1980
2019-03-29T06:26:20.468Z,2040
2019-03-29T06:27:30.578Z,2100
2019-03-29T06:28:40.688Z,2148
2019-03-29T06:29:50.577Z,2164
2019-03-29T06:31:00.730Z,2180
2019-03-29T06:32:10.853Z,2192
2019-03-29T06:33:20.958Z,2200
2019-03-29T06:34:31.077Z,2216
2019-03-29T06:35:41.179Z,2224
2019-03-29T06:36:51.305Z,2260
2019-03-29T06:38:01.421Z,2276
2019-03-29T06:39:11.557Z,2276
2019-03-29T06:40:21.665Z,2280
2019-03-29T06:41:31.785Z,2308
2019-03-29T06:42:41.888Z,2352
2019-03-29T06:43:52.003Z,2392
2019-03-29T06:45:02.125Z,2432
2019-03-29T06:46:12.260Z,2464
2019-03-29T06:47:22.372Z,2500
2019-03-29T06:48:32.507Z,2520
2019-03-29T06:49:42.623Z,2540
2019-03-29T06:50:52.749Z,2576
2019-03-29T06:52:03.161Z,2628
2019-03-29T06:53:13.290Z,2672
2019-03-29T06:54:23.409Z,2692
2019-03-29T06:55:33.535Z,2700
2019-03-29T06:56:43.667Z,2724
2019-03-29T06:57:53.799Z,2756
2019-03-29T06:59:03.915Z,2780
2019-03-29T07:00:14.040Z,2832
2019-03-29T07:01:24.174Z,2892
2019-03-29T07:02:34.323Z,2948
2019-03-29T07:03:44.444Z,2996
2019-03-29T07:04:54.564Z,3076
2019-03-29T07:06:04.687Z,3180
2019-03-29T07:07:14.567Z,3268
2019-03-29T07:08:24.722Z,3320
2019-03-29T07:09:34.921Z,3336
2019-03-29T07:10:45.038Z,3360
2019-03-29T07:11:55.187Z,3396
2019-03-29T07:13:05.315Z,3424
2019-03-29T07:14:15.451Z,3404
2019-03-29T07:15:25.588Z,3372
2019-03-29T07:16:35.732Z,3356
2019-03-29T07:17:45.853Z,3364
2019-03-29T07:18:55.963Z,3360
2019-03-29T07:20:06.114Z,3340
2019-03-29T07:21:28.415Z,3352
2019-03-29T07:22:41.775Z,3436
2019-03-29T07:23:51.925Z,3544
2019-03-29T07:25:01.691Z,3596
2019-03-29T07:26:11.817Z,3572
2019-03-29T07:27:21.950Z,3532
2019-03-29T07:28:32.127Z,3516
2019-03-29T07:29:42.247Z,3560
2019-03-29T07:30:52.461Z,3628
2019-03-29T07:32:02.330Z,3688
2019-03-29T07:33:12.456Z,3712
2019-03-29T07:34:22.650Z,3704
2019-03-29T07:35:33.014Z,3676
2019-03-29T07:36:43.156Z,3676
2019-03-29T07:37:53.295Z,3720
2019-03-29T07:39:03.417Z,3788
2019-03-29T07:40:13.550Z,3836
2019-03-29T07:41:38.200Z,3868
2019-03-29T07:42:48.329Z,3928
2019-03-29T07:43:58.429Z,4040
2019-03-29T07:45:10.299Z,4128
2019-03-29T07:46:20.243Z,4208
2019-03-29T07:47:30.374Z,4256
2019-03-29T07:48:42.855Z,4312
2019-03-29T07:49:52.978Z,4380
2019-03-29T07:51:03.120Z,4428
2019-03-29T07:52:13.233Z,4476
2019-03-29T07:53:23.007Z,4504
2019-03-29T07:54:32.902Z,4480
2019-03-29T07:55:44.768Z,4408
2019-03-29T07:56:54.877Z,4328
2019-03-29T07:58:05.019Z,4224
2019-03-29T07:59:14.903Z,4128
2019-03-29T08:00:27.680Z,4080
2019-03-29T08:01:40.716Z,4116
2019-03-29T08:02:50.616Z,4192
2019-03-29T08:04:00.885Z,4264
2019-03-29T08:05:11.074Z,4316
2019-03-29T08:06:21.210Z,4352
2019-03-29T08:07:36.437Z,4372
2019-03-29T08:08:46.571Z,4380
2019-03-29T08:09:56.918Z,4388
2019-03-29T08:11:07.057Z,4420
2019-03-29T08:12:17.271Z,4496
2019-03-29T08:13:27.446Z,4608
2019-03-29T08:14:37.576Z,4696
2019-03-29T08:15:47.708Z,4748
2019-03-29T08:16:57.829Z,4796
2019-03-29T08:18:08.972Z,4880
2019-03-29T08:19:19.092Z,4952
2019-03-29T08:20:49.446Z,5020
2019-03-29T08:22:02.582Z,5048
2019-03-29T08:23:12.775Z,4984
2019-03-29T08:24:22.633Z,4912
2019-03-29T08:25:32.741Z,4900
2019-03-29T08:26:42.894Z,4932
2019-03-29T08:27:53.034Z,4988
2019-03-29T08:29:03.226Z,5036
2019-03-29T08:30:13.450Z,5080
2019-03-29T08:31:23.715Z,5140
2019-03-29T08:32:33.835Z,5204
2019-03-29T08:33:43.978Z,5264
2019-03-29T08:34:54.167Z,5300
2019-03-29T08:36:04.295Z,5292
2019-03-29T08:37:14.418Z,5260
2019-03-29T08:38:24.555Z,5228
2019-03-29T08:39:35.839Z,5212
2019-03-29T08:40:47.694Z,5248
2019-03-29T08:42:07.543Z,5312
2019-03-29T08:43:17.685Z,5324
2019-03-29T08:44:27.814Z,5312
2019-03-29T08:45:37.924Z,5348
2019-03-29T08:46:48.049Z,5408
2019-03-29T08:47:58.170Z,5408
2019-03-29T08:49:10.053Z,5348
2019-03-29T08:50:20.161Z,5336
2019-03-29T08:51:30.316Z,5372
2019-03-29T08:52:40.222Z,5396
2019-03-29T08:53:50.492Z,5456
2019-03-29T08:55:00.630Z,5548
2019-03-29T08:56:10.954Z,5676
2019-03-29T08:57:21.098Z,5816
2019-03-29T08:58:31.229Z,5992
2019-03-29T08:59:41.380Z,6152
2019-03-29T09:00:51.492Z,6248
2019-03-29T09:02:01.683Z,6324
2019-03-29T09:03:11.808Z,6388
2019-03-29T09:04:24.162Z,6460
2019-03-29T09:05:34.365Z,6568
2019-03-29T09:07:00.269Z,6760
2019-03-29T09:08:10.399Z,6876
2019-03-29T09:09:20.597Z,7008
2019-03-29T09:10:30.769Z,7136
2019-03-29T09:11:43.813Z,7208
2019-03-29T09:12:53.992Z,7252
2019-03-29T09:14:03.874Z,7344
2019-03-29T09:15:13.990Z,7504
2019-03-29T09:16:24.121Z,7644
2019-03-29T09:17:34.263Z,7716
2019-03-29T09:18:44.444Z,7764
2019-03-29T09:19:54.619Z,7728
2019-03-29T09:21:04.750Z,7696
2019-03-29T09:22:14.889Z,7680
2019-03-29T09:23:25.227Z,7704
2019-03-29T09:24:38.033Z,7780
2019-03-29T09:25:48.274Z,7884
2019-03-29T09:26:58.492Z,8080
2019-03-29T09:28:08.633Z,8324
2019-03-29T09:29:18.878Z,8468
2019-03-29T09:30:29.035Z,8548
2019-03-29T09:31:39.171Z,8532
2019-03-29T09:32:51.189Z,8308
2019-03-29T09:34:03.480Z,7968
2019-03-29T09:35:13.746Z,7760
2019-03-29T09:36:23.876Z,7812
2019-03-29T09:37:34.030Z,7852
2019-03-29T09:38:46.182Z,7860
2019-03-29T09:39:56.332Z,7920
2019-03-29T09:41:06.815Z,8016
2019-03-29T09:42:31.229Z,8120
2019-03-29T09:43:41.370Z,8168
2019-03-29T09:44:51.507Z,8304
2019-03-29T09:46:03.361Z,8456
2019-03-29T09:47:13.703Z,8524
2019-03-29T09:48:23.871Z,8648
2019-03-29T09:49:34.010Z,8740
2019-03-29T09:50:47.606Z,8920
2019-03-29T09:52:00.054Z,9308
2019-03-29T09:53:10.238Z,9776
2019-03-29T09:54:22.951Z,10200
2019-03-29T09:55:33.115Z,10516
2019-03-29T09:56:48.290Z,10732
2019-03-29T09:57:58.577Z,10880
2019-03-29T09:59:08.724Z,11176
2019-03-29T10:00:29.823Z,11804
2019-03-29T10:01:40.367Z,12488
2019-03-29T10:02:50.572Z,13024
2019-03-29T10:04:00.714Z,13472
2019-03-29T10:05:10.866Z,13736
2019-03-29T10:06:22.784Z,13712
2019-03-29T10:07:32.956Z,13732
2019-03-29T10:08:43.072Z,14012
2019-03-29T10:09:53.211Z,14560
2019-03-29T10:11:03.358Z,15392
2019-03-29T10:12:13.515Z,16000
2019-03-29T10:13:23.381Z,15936
2019-03-29T10:14:35.939Z,15552
2019-03-29T10:15:46.070Z,15424
2019-03-29T10:16:59.048Z,16064
2019-03-29T10:18:09.205Z,17120
2019-03-29T10:19:18.962Z,18336
2019-03-29T10:20:29.114Z,19168
2019-03-29T10:21:41.465Z,19040
2019-03-29T10:22:52.456Z,18848
2019-03-29T10:24:03.980Z,19264
2019-03-29T10:25:28.303Z,20352
2019-03-29T10:26:40.655Z,20832
2019-03-29T10:27:51.768Z,20960
2019-03-29T10:29:02.095Z,21440
2019-03-29T10:30:12.832Z,21984
2019-03-29T10:31:39.134Z,23968
2019-03-29T10:32:51.476Z,24576
2019-03-29T10:34:03.284Z,25568
2019-03-29T10:37:48.202Z,25024
